The Official Home Page Of The Professional Rodeo Cowboys Association PRCA RAM WORLD STANDINGS
ProRodeoTv.Com
Red

PRCA Stock Statistics

SEARCH BY:
Stock Rodeo Contestant Stock Contractor

Clayton Sellars

EVENT:
Unofficial results reflect placement at time of Web posting and can change.

SEASON BREAKDOWN

Season Attempts Qual Rides Re-rides Ride %
2018 93 42 0 45.16 %
2017 85 30 0 35.29 %
Totals 178 72 0 0.00 %

RODEO DETAIL

Date Location Rodeo SC Brand Ride Comments Stock Score Contestant Score
7/17/2018 Nampa, ID Snake River Stampede FL 447 0.00 0.00 / 22.00 0.00 / 0.00
7/13/2018 Sheridan, WY Sheridan WYO Rodeo SA 314 0.00 20.50 / 19.00 0.00 / 0.00
7/12/2018 Laramie, WY Laramie Jubilee Days Xtreme Bulls SM 298 0.00 17.00 / 20.00 0.00 / 0.00
7/11/2018 Colorado Springs, CO Pikes Peak or Bust Rodeo FL 388 0.00 20.00 / 19.50 0.00 / 0.00
7/10/2018 Casper, WY Central Wyoming Fair & PRCA Rodeo BF 711 0.00 21.00 / 20.50 0.00 / 0.00
7/9/2018 Estes Park, CO Rooftop Rodeo FL 478 0.00 22.00 / 21.00 0.00 / 0.00
7/2/2018 Livingston, MT Livingston Roundup KC S211 0.00 18.00 / 21.00 0.00 / 0.00
7/2/2018 Prescott, AZ World s Oldest Rodeo FL 541 0.00 21.00 / 20.50 0.00 / 0.00
7/1/2018 Cody, WY Cody Stampede FR 74 0.00 16.00 / 18.50 0.00 / 0.00
6/30/2018 Cody, WY Cody Stampede Xtreme Bulls BH 281 0.00 20.50 / 20.00 0.00 / 0.00
6/29/2018 Pecos, TX West Of The Pecos Rodeo PC 011 0.00 21.00 / 22.00 0.00 / 0.00
6/28/2018 Springdale, AR Rodeo of The Ozarks SS 441 87.00 21.00 / 21.50 22.00 / 22.50
6/27/2018 Greeley, CO Greeley Stampede RM 327 0.00 21.00 / 22.50 0.00 / 0.00
6/26/2018 Greeley, CO Greeley Stampede Xtreme Bulls PR 569C 0.00 21.00 / 21.00 0.00 / 0.00
6/23/2018 Santa Fe, NM Rodeo de Sante Fe FL 2244 0.00 22.00 / 23.00 0.00 / 0.00
6/22/2018 Pleasant Grove, UT Strawberry Days Rodeo BT 144 0.00 18.00 / 19.00 0.00 / 0.00
6/20/2018 Clear Lake, SD Crystal Springs Rodeo Xtreme Bulls DK 739 0.00 20.00 / 21.50 0.00 / 0.00
6/16/2018 Reno, NV Reno Rodeo FU 11 73.00 18.00 / 18.00 18.00 / 19.00
6/13/2018 Reno, NV Reno Rodeo Xtreme Bulls ST 233 0.00 20.00 / 20.00 0.00 / 0.00
6/9/2018 Cortez, CO Ute Mountain Roundup Rodeo HR 4152 81.50 20.00 / 19.00 21.50 / 21.00
6/8/2018 Coleman, TX Coleman PRCA Rodeo SH 093 0.00 23.50 / 24.00 0.00 / 0.00
6/7/2018 Cleburne, TX Johnson County Sheriff s Posse UP 123 0.00 21.00 / 21.00 0.00 / 0.00
6/6/2018 Gladewater, TX Gladewater Round-Up Xtreme Bulls SS 45 83.00 21.00 / 20.00 20.00 / 22.00
6/5/2018 Weatherford, TX Parker County Sheriff s Posse Xtreme Bulls UR 003 0.00 20.00 / 21.00 0.00 / 0.00
6/2/2018 Hugo, OK Hugo PRCA Rodeo RH 33 83.50 19.00 / 22.00 20.50 / 22.00
Page of 4
Per Page
Official Gear Of The PRCA

 
 
 
PRCA National Sponsors
MGM Grand Polaris Ranger
Copyright © 2018 Professional Rodeo Cowboys Association. All rights reserved. No portion of ProRodeo.com may be duplicated, redistributed or manipulated in any form. By accessing any information beyond this page, you agree to abide by the Terms of Use.
PRCA Wrangler National Finals Rodeo Wrangler ProRodeo Tour Finale Presented by Justin Boots Xtreme Bulls RAM National Circuit Finals Rodeo ProRodeo Gear ProRodeo Tour